ROMMA est une association bénévole à but non lucratif. Votre soutien est indispensable : ADHERER à ROMMA ou FAIRE un DON

Die - (26, Drôme)

Diois (400 m)   Longitude: 5° 21' 55"E   Latitude: 44° 45' 16"N Station partenaire n°159
 

Détail journalier du     <<     >>

Température Precipitation Humidité Pression Vent Dir Rafale Dir. rafale Ensol.
Heure (°C) (mm) (%) (hPa) (km/h) (km/h) (min)
01:00 6.108110161E5ESE0
02:00 4.208510161S3S0
03:00
04:00 3.109010161S3S0
05:00 2.209110151S5S0
06:00 1.709210151SO3S0
07:00 1.109310151SO5SO0
08:00 0.909410151SO5SO0
09:00 2.209310152SSO6SO0
10:00 4.408910151SE6SSO0
11:00 7.608210151O6NO10
12:00 11.907210142O6SSO30
13:00 14.605910149O21O10
14:00 14.6056101410NO24NO0
15:00 15.105310139NO23NO50
16:00 12.3060101412N34N30
17:00 10.3063101513ONO39ONO0
18:00 9.8065101511N31NO40
19:00 8.406810168N35NE30
20:00 6.4071101610NO26NO0
21:00 5.8070101711N27O0
22:00 5.207410179O24NO0
23:00 4.707410178NO16O0
minuit

Graphique du 29-03-2020

 

Serveur OMMA